Corpus Christi Jet Center

SKYE FBO - AIRPORT SERVICES
McCampbell-Porter Airport KTFP
Call Us 24/7: (361) 758-2000
KTFP - McCampbell-Porter Airport
Updated: Wed, 14-Nov-2018 8:55am PST

 Wind from N
Wind: N 12 mph , 19 km/h, Gust: 17 mph , 28 km/h
Temperature: 48°F , 9°C
Wind Chill: 43°F , 6°C
Dew Point: 27°F , -3°C
Humidity: 43%
Barometer: 30.54 inHg , 1034.2 hPa
2018/11/14 16:55 KTFP 141655Z AUTO 36010G15KT 09/M03 A3054 RMK AO2 T00861031 PWINO PNO

Location

Skye FBO - Airport Services
McCampbell-Porter Airport KTFP
3141 FM 3512
Aransas Pass, TX 78336-9728
(361) 758-2000
2 miles N of Ingleside, TX
Only 15 min from downtown Corpus Christi 2 miles N of Ingleside, Texas and only 15 minutes from downtown Corpus Christi, Texas

(click to enlarge)

Skyview Aviation BBB Business Review

Flight Training & Testing

Skyview Aviation
www.skyviewtexas.com


Aircraft Services

image Experienced Line Service
Full Service Fueling - 100LL, Jet A (w/Prist)
Oil - Piston / Turbine Engine
Hangar Space (call for availability)
Cleaning
Maintenance
Tie Downs
APU - Fox Cart
Towing

Crew & Passenger Services

Flight Planning
Weather
Crew Cars
Enterprise Rental Cars
Catering
Newspapers
Concierge
WiFi
Baggage & Cargo Handling
Ice/Coffee
image

Management Services

image Individualized turnkey solutions for your general aviation needs